createdAt,value
2018-06-11T00:01:43.262Z,20.50
2018-06-11T00:04:12.013Z,20.47
2018-06-11T00:06:40.725Z,20.44
2018-06-11T00:09:09.629Z,20.46
2018-06-11T00:11:38.358Z,20.44
2018-06-11T00:14:07.111Z,20.35
2018-06-11T00:16:35.853Z,20.25
2018-06-11T00:19:04.542Z,20.21
2018-06-11T00:21:33.250Z,20.13
2018-06-11T00:24:01.994Z,20.02
2018-06-11T00:26:30.709Z,19.90
2018-06-11T00:28:59.402Z,19.90
2018-06-11T00:31:28.173Z,19.85
2018-06-11T00:33:56.881Z,19.91
2018-06-11T00:36:25.572Z,19.83
2018-06-11T00:38:54.284Z,19.73
2018-06-11T00:41:22.989Z,19.74
2018-06-11T00:43:51.683Z,19.77
2018-06-11T00:46:20.431Z,19.86
2018-06-11T00:48:49.267Z,19.86
2018-06-11T00:51:18.160Z,19.80
2018-06-11T00:53:46.902Z,19.71
2018-06-11T00:56:15.579Z,19.81
2018-06-11T00:58:44.272Z,19.73
2018-06-11T01:01:13.014Z,19.65
2018-06-11T01:03:41.744Z,19.54
2018-06-11T01:06:10.454Z,19.53
2018-06-11T01:08:39.169Z,19.41
2018-06-11T01:11:07.854Z,19.33
2018-06-11T01:13:36.551Z,19.24
2018-06-11T01:16:05.306Z,19.17
2018-06-11T01:18:34.010Z,19.21
2018-06-11T01:21:02.703Z,19.30
2018-06-11T01:23:31.471Z,19.26
2018-06-11T01:26:00.187Z,19.25
2018-06-11T01:28:28.919Z,19.24
2018-06-11T01:30:57.781Z,19.15
2018-06-11T01:33:26.483Z,19.13
2018-06-11T01:35:55.186Z,19.01
2018-06-11T01:38:23.926Z,18.94
2018-06-11T01:40:52.646Z,18.87
2018-06-11T01:43:21.356Z,18.88
2018-06-11T01:45:50.093Z,18.82
2018-06-11T01:48:18.860Z,18.78
2018-06-11T01:50:47.638Z,18.76
2018-06-11T01:53:16.372Z,18.88
2018-06-11T01:55:45.068Z,18.85
2018-06-11T01:58:13.759Z,18.83
2018-06-11T02:00:42.555Z,18.86
2018-06-11T02:03:11.456Z,18.96
2018-06-11T02:05:40.251Z,18.98
2018-06-11T02:08:08.977Z,18.93
2018-06-11T02:10:37.676Z,18.80
2018-06-11T02:13:06.599Z,18.67
2018-06-11T02:15:35.329Z,18.58
2018-06-11T02:18:04.086Z,18.49
2018-06-11T02:20:32.830Z,18.47
2018-06-11T02:23:01.570Z,18.46
2018-06-11T02:25:30.273Z,18.49
2018-06-11T02:27:59.106Z,18.57
2018-06-11T02:30:27.844Z,18.50
2018-06-11T02:32:56.554Z,18.42
2018-06-11T02:35:25.269Z,18.50
2018-06-11T02:37:53.994Z,18.53
2018-06-11T02:40:22.699Z,18.64
2018-06-11T02:42:51.395Z,18.54
2018-06-11T02:45:20.150Z,18.56
2018-06-11T02:47:48.853Z,18.56
2018-06-11T02:50:17.565Z,18.56
2018-06-11T02:52:46.343Z,18.57
2018-06-11T02:55:15.040Z,18.63
2018-06-11T02:57:43.730Z,18.61
2018-06-11T03:00:12.483Z,18.57
2018-06-11T03:02:41.357Z,18.53
2018-06-11T03:05:10.058Z,18.55
2018-06-11T03:07:39.001Z,18.61
2018-06-11T03:10:07.833Z,18.64
2018-06-11T03:12:36.545Z,18.72
2018-06-11T03:15:05.266Z,18.84
2018-06-11T03:17:33.949Z,18.85
2018-06-11T03:20:02.635Z,18.90
2018-06-11T03:22:31.379Z,18.91
2018-06-11T03:25:00.177Z,18.95
2018-06-11T03:27:28.872Z,19.01
2018-06-11T03:29:57.597Z,19.18
2018-06-11T03:32:26.282Z,19.59
2018-06-11T03:34:54.984Z,20.62
2018-06-11T03:37:23.743Z,21.70
2018-06-11T03:39:52.440Z,22.55
2018-06-11T03:42:21.166Z,23.34
2018-06-11T03:44:49.910Z,23.64
2018-06-11T03:47:18.626Z,23.76
2018-06-11T03:49:47.456Z,24.36
2018-06-11T03:52:16.273Z,24.41
2018-06-11T03:54:44.980Z,24.95
2018-06-11T03:57:13.675Z,25.69
2018-06-11T03:59:42.497Z,26.28
2018-06-11T04:02:11.562Z,27.05
2018-06-11T04:04:40.297Z,27.68
2018-06-11T04:07:09.052Z,28.65
2018-06-11T04:09:37.753Z,29.50
2018-06-11T04:12:06.452Z,30.19
2018-06-11T04:14:35.265Z,30.65
2018-06-11T04:17:04.275Z,31.08
2018-06-11T04:19:33.000Z,31.03
2018-06-11T04:22:01.738Z,31.24
2018-06-11T04:24:30.489Z,32.20
2018-06-11T04:26:59.218Z,32.15
2018-06-11T04:29:27.956Z,32.72
2018-06-11T04:31:56.657Z,33.24
2018-06-11T04:34:25.382Z,33.28
2018-06-11T04:36:54.258Z,34.30
2018-06-11T04:39:22.979Z,34.33
2018-06-11T04:41:51.670Z,34.64
2018-06-11T04:44:20.473Z,34.74
2018-06-11T04:46:49.195Z,34.46
2018-06-11T04:49:17.913Z,33.98
2018-06-11T04:51:46.715Z,34.07
2018-06-11T04:54:15.576Z,34.35
2018-06-11T04:56:44.322Z,35.54
2018-06-11T04:59:13.292Z,35.62
2018-06-11T05:01:42.044Z,35.63
2018-06-11T05:04:10.787Z,35.28
2018-06-11T05:06:39.546Z,35.56
2018-06-11T05:09:08.311Z,35.60
2018-06-11T05:11:37.008Z,34.73
2018-06-11T05:14:05.730Z,34.90
2018-06-11T05:16:34.421Z,35.94
2018-06-11T05:19:03.121Z,36.71
2018-06-11T05:21:31.882Z,37.33
2018-06-11T05:24:00.603Z,37.32
2018-06-11T05:26:29.317Z,36.88
2018-06-11T05:28:58.057Z,37.56
2018-06-11T05:31:26.802Z,37.44
2018-06-11T05:33:55.529Z,37.58
2018-06-11T05:36:24.285Z,37.91
2018-06-11T05:38:52.986Z,38.86
2018-06-11T05:41:21.703Z,39.20
2018-06-11T05:43:50.445Z,39.11
2018-06-11T05:46:19.162Z,39.57
2018-06-11T05:48:48.010Z,39.80
2018-06-11T05:51:16.867Z,39.11
2018-06-11T05:53:45.609Z,39.35
2018-06-11T05:56:14.295Z,37.80
2018-06-11T05:58:43.017Z,38.19
2018-06-11T06:01:11.809Z,38.65
2018-06-11T06:03:40.559Z,39.26
2018-06-11T06:06:09.311Z,38.94
2018-06-11T06:08:38.075Z,38.68
2018-06-11T06:11:06.766Z,39.61
2018-06-11T06:13:35.532Z,40.69
2018-06-11T06:16:04.272Z,41.10
2018-06-11T06:18:32.981Z,41.24
2018-06-11T06:21:01.714Z,41.69
2018-06-11T06:23:30.417Z,41.96
2018-06-11T06:25:59.126Z,42.05
2018-06-11T06:28:27.869Z,42.14
2018-06-11T06:30:56.578Z,42.49
2018-06-11T06:33:25.277Z,43.03
2018-06-11T06:35:54.026Z,42.99
2018-06-11T06:38:22.721Z,42.25
2018-06-11T06:40:51.627Z,41.19
2018-06-11T06:43:20.387Z,40.38
2018-06-11T06:45:49.091Z,40.92
2018-06-11T06:48:17.794Z,41.02
2018-06-11T06:50:46.554Z,41.54
2018-06-11T06:53:15.269Z,41.64
2018-06-11T06:55:43.970Z,41.79
2018-06-11T06:58:12.690Z,41.67
2018-06-11T07:00:41.418Z,41.57
2018-06-11T07:03:10.159Z,41.60
2018-06-11T07:05:38.907Z,40.98
2018-06-11T07:08:07.655Z,40.72
2018-06-11T07:10:36.368Z,40.68
2018-06-11T07:13:05.113Z,41.31
2018-06-11T07:15:33.843Z,41.64
2018-06-11T07:18:02.579Z,41.78
2018-06-11T07:20:31.355Z,41.73
2018-06-11T07:23:00.086Z,42.16
2018-06-11T07:25:28.795Z,42.01
2018-06-11T07:27:57.547Z,42.48
2018-06-11T07:30:26.276Z,42.43
2018-06-11T07:32:55.014Z,42.05
2018-06-11T07:35:23.762Z,42.06
2018-06-11T07:37:52.538Z,41.64
2018-06-11T07:40:21.267Z,41.04
2018-06-11T07:42:50.016Z,40.48
2018-06-11T07:45:18.731Z,41.33
2018-06-11T07:47:47.437Z,40.44
2018-06-11T07:50:17.141Z,39.57
2018-06-11T07:52:45.849Z,39.99
2018-06-11T07:55:14.553Z,40.03
2018-06-11T07:57:43.279Z,39.73
2018-06-11T08:00:11.979Z,38.61
2018-06-11T08:02:40.669Z,37.68
2018-06-11T08:05:09.396Z,38.76
2018-06-11T08:07:38.216Z,39.58
2018-06-11T08:10:06.916Z,38.47
2018-06-11T08:12:35.699Z,36.93
2018-06-11T08:15:04.408Z,36.22
2018-06-11T08:17:33.090Z,35.53
2018-06-11T08:20:01.818Z,35.45
2018-06-11T08:22:30.529Z,36.97
2018-06-11T08:24:59.330Z,37.94
2018-06-11T08:27:28.113Z,39.85
2018-06-11T08:29:56.805Z,40.26
2018-06-11T08:32:25.882Z,40.77
2018-06-11T08:34:54.653Z,41.84
2018-06-11T08:37:23.379Z,42.18
2018-06-11T08:39:52.295Z,42.15
2018-06-11T08:42:21.043Z,42.04
2018-06-11T08:44:49.760Z,41.10
2018-06-11T08:47:18.444Z,39.60
2018-06-11T08:49:47.184Z,40.22
2018-06-11T08:52:16.795Z,40.87
2018-06-11T08:54:45.511Z,41.50
2018-06-11T08:57:14.289Z,40.51
2018-06-11T08:59:43.036Z,40.03
2018-06-11T09:02:11.759Z,40.26
2018-06-11T09:04:40.491Z,40.34
2018-06-11T09:07:09.225Z,39.78
2018-06-11T09:09:37.917Z,40.73
2018-06-11T09:12:06.628Z,41.34
2018-06-11T09:14:35.326Z,41.13
2018-06-11T09:17:04.033Z,39.56
2018-06-11T09:19:32.749Z,37.82
2018-06-11T09:22:01.434Z,38.15
2018-06-11T09:24:30.134Z,38.84
2018-06-11T09:26:58.930Z,39.71
2018-06-11T09:29:27.667Z,41.11
2018-06-11T09:31:56.373Z,41.51
2018-06-11T09:34:25.098Z,41.59
2018-06-11T09:36:53.790Z,41.64
2018-06-11T09:39:22.497Z,40.81
2018-06-11T09:41:51.221Z,39.46
2018-06-11T09:44:19.913Z,39.21
2018-06-11T09:46:48.610Z,39.57
2018-06-11T09:49:17.401Z,39.65
2018-06-11T09:51:46.061Z,39.84
2018-06-11T09:54:14.761Z,39.95
2018-06-11T09:56:43.488Z,40.00
2018-06-11T09:59:12.202Z,40.38
2018-06-11T10:01:40.995Z,40.98
2018-06-11T10:04:09.747Z,40.77
2018-06-11T10:06:38.457Z,40.94
2018-06-11T10:09:08.834Z,41.06
2018-06-11T10:11:37.583Z,39.65
2018-06-11T10:14:06.573Z,39.29
2018-06-11T10:16:35.288Z,39.47
2018-06-11T10:19:04.119Z,38.78
2018-06-11T10:21:32.915Z,39.74
2018-06-11T10:24:01.679Z,40.29
2018-06-11T10:26:30.410Z,40.79
2018-06-11T10:28:59.214Z,40.60
2018-06-11T10:31:28.049Z,40.00
2018-06-11T10:33:56.790Z,38.89
2018-06-11T10:36:25.497Z,37.25
2018-06-11T10:38:54.207Z,35.56
2018-06-11T10:41:22.950Z,36.29
2018-06-11T10:43:51.653Z,37.28
2018-06-11T10:46:20.361Z,38.53
2018-06-11T10:48:49.102Z,39.57
2018-06-11T10:51:17.813Z,39.22
2018-06-11T10:53:46.508Z,39.83
2018-06-11T10:56:15.245Z,41.14
2018-06-11T10:58:43.945Z,40.98
2018-06-11T11:01:12.652Z,40.88
2018-06-11T11:03:41.390Z,41.20
2018-06-11T11:06:10.078Z,40.62
2018-06-11T11:08:38.765Z,39.06
2018-06-11T11:11:07.569Z,38.51
2018-06-11T11:13:36.301Z,39.20
2018-06-11T11:16:04.989Z,38.16
2018-06-11T11:18:33.758Z,38.01
2018-06-11T11:21:02.484Z,38.35
2018-06-11T11:23:31.181Z,38.82
2018-06-11T11:25:59.926Z,38.79
2018-06-11T11:28:28.713Z,39.06
2018-06-11T11:30:57.413Z,39.49
2018-06-11T11:33:26.167Z,40.43
2018-06-11T11:35:55.055Z,40.81
2018-06-11T11:38:23.763Z,40.98
2018-06-11T11:40:52.511Z,40.23
2018-06-11T11:43:21.222Z,40.06
2018-06-11T11:45:49.933Z,40.15
2018-06-11T11:48:18.675Z,39.19
2018-06-11T11:50:47.362Z,38.19
2018-06-11T11:53:16.080Z,38.03
2018-06-11T11:55:44.831Z,38.64
2018-06-11T11:58:13.559Z,39.21
2018-06-11T12:00:42.277Z,39.57
2018-06-11T12:03:11.015Z,39.86
2018-06-11T12:05:39.738Z,41.05
2018-06-11T12:08:08.451Z,41.09
2018-06-11T12:10:37.197Z,40.00
2018-06-11T12:13:05.923Z,39.40
2018-06-11T12:15:34.670Z,39.03
2018-06-11T12:18:03.423Z,39.91
2018-06-11T12:20:32.121Z,40.61
2018-06-11T12:23:00.821Z,41.14
2018-06-11T12:25:29.542Z,40.50
2018-06-11T12:27:58.350Z,39.86
2018-06-11T12:30:27.030Z,38.22
2018-06-11T12:32:55.758Z,37.45
2018-06-11T12:35:24.445Z,36.69
2018-06-11T12:37:53.138Z,36.24
2018-06-11T12:40:21.971Z,35.61
2018-06-11T12:42:50.665Z,34.90
2018-06-11T12:45:19.367Z,34.72
2018-06-11T12:47:48.094Z,34.13
2018-06-11T12:50:16.813Z,33.99
2018-06-11T12:52:45.535Z,34.34
2018-06-11T12:55:14.292Z,34.29
2018-06-11T12:57:42.990Z,34.00
2018-06-11T13:00:11.742Z,33.94
2018-06-11T13:02:40.566Z,33.95
2018-06-11T13:05:09.267Z,33.99
2018-06-11T13:07:37.982Z,33.91
2018-06-11T13:10:06.726Z,33.88
2018-06-11T13:12:35.452Z,33.60
2018-06-11T13:15:04.180Z,33.83
2018-06-11T13:17:32.918Z,33.75
2018-06-11T13:20:01.643Z,33.84
2018-06-11T13:22:30.478Z,33.47
2018-06-11T13:24:59.216Z,32.97
2018-06-11T13:27:27.931Z,32.75
2018-06-11T13:29:56.657Z,32.70
2018-06-11T13:32:25.399Z,32.91
2018-06-11T13:34:54.193Z,33.03
2018-06-11T13:37:22.893Z,32.97
2018-06-11T13:39:51.629Z,32.97
2018-06-11T13:42:20.338Z,33.03
2018-06-11T13:44:49.042Z,33.03
2018-06-11T13:47:17.786Z,33.07
2018-06-11T13:49:46.500Z,33.09
2018-06-11T13:52:15.236Z,33.02
2018-06-11T13:54:43.989Z,33.02
2018-06-11T13:57:12.714Z,32.99
2018-06-11T13:59:41.397Z,32.73
2018-06-11T14:02:10.143Z,32.68
2018-06-11T14:04:38.849Z,32.81
2018-06-11T14:07:07.560Z,32.95
2018-06-11T14:09:36.303Z,32.74
2018-06-11T14:12:05.164Z,32.56
2018-06-11T14:14:33.877Z,32.55
2018-06-11T14:17:02.684Z,32.33
2018-06-11T14:19:31.386Z,32.40
2018-06-11T14:22:00.249Z,32.45
2018-06-11T14:24:29.006Z,32.39
2018-06-11T14:26:57.738Z,32.43
2018-06-11T14:29:26.460Z,32.56
2018-06-11T14:31:55.211Z,32.51
2018-06-11T14:34:23.925Z,32.64
2018-06-11T14:36:52.643Z,32.78
2018-06-11T14:39:21.405Z,32.84
2018-06-11T14:41:50.102Z,32.70
2018-06-11T14:44:18.837Z,32.67
2018-06-11T14:46:47.621Z,32.53
2018-06-11T14:49:16.310Z,32.52
2018-06-11T14:51:45.049Z,32.48
2018-06-11T14:54:13.790Z,32.48
2018-06-11T14:56:42.524Z,32.40
2018-06-11T14:59:11.391Z,32.45
2018-06-11T15:01:40.119Z,32.35
2018-06-11T15:04:08.852Z,32.26
2018-06-11T15:06:37.552Z,32.16
2018-06-11T15:09:07.856Z,32.22
2018-06-11T15:11:36.576Z,32.15
2018-06-11T15:14:05.576Z,32.17
2018-06-11T15:16:34.395Z,32.22
2018-06-11T15:19:03.143Z,32.15
2018-06-11T15:21:31.847Z,32.09
2018-06-11T15:24:00.577Z,31.87
2018-06-11T15:26:29.274Z,31.92
2018-06-11T15:28:57.982Z,31.97
2018-06-11T15:31:26.726Z,31.98
2018-06-11T15:33:55.537Z,31.92
2018-06-11T15:36:24.252Z,31.87
2018-06-11T15:38:53.056Z,31.83
2018-06-11T15:41:26.861Z,31.89
2018-06-11T15:43:55.972Z,31.90
2018-06-11T15:46:24.691Z,31.87
2018-06-11T15:48:53.418Z,31.76
2018-06-11T15:51:22.173Z,31.58
2018-06-11T15:53:51.079Z,31.51
2018-06-11T15:56:19.839Z,31.52
2018-06-11T15:58:49.001Z,31.54
2018-06-11T16:01:17.935Z,31.49
2018-06-11T16:03:46.935Z,31.48
2018-06-11T16:06:15.809Z,31.35
2018-06-11T16:08:44.538Z,31.27
2018-06-11T16:11:13.817Z,31.17
2018-06-11T16:13:42.575Z,31.12
2018-06-11T16:16:11.302Z,31.09
2018-06-11T16:18:40.032Z,31.08
2018-06-11T16:21:08.819Z,31.03
2018-06-11T16:23:37.745Z,30.96
2018-06-11T16:26:06.909Z,30.80
2018-06-11T16:28:35.714Z,30.69
2018-06-11T16:31:04.495Z,30.56
2018-06-11T16:33:33.227Z,30.50
2018-06-11T16:36:01.994Z,30.39
2018-06-11T16:38:30.861Z,30.37
2018-06-11T16:40:59.575Z,30.32
2018-06-11T16:43:28.529Z,30.28
2018-06-11T16:45:57.321Z,30.20
2018-06-11T16:48:26.066Z,30.17
2018-06-11T16:50:55.286Z,30.07
2018-06-11T16:53:24.129Z,29.93
2018-06-11T16:55:52.892Z,29.74
2018-06-11T16:58:21.650Z,29.60
2018-06-11T17:00:50.402Z,29.36
2018-06-11T17:03:19.142Z,29.27
2018-06-11T17:05:47.925Z,29.13
2018-06-11T17:08:16.755Z,28.97
2018-06-11T17:10:45.584Z,28.75
2018-06-11T17:13:14.315Z,28.59
2018-06-11T17:15:43.063Z,28.42
2018-06-11T17:18:11.778Z,28.23
2018-06-11T17:20:40.693Z,28.03
2018-06-11T17:23:09.434Z,27.96
2018-06-11T17:25:38.353Z,27.84
2018-06-11T17:28:07.267Z,27.69
2018-06-11T17:30:36.046Z,27.63
2018-06-11T17:33:04.908Z,27.52
2018-06-11T17:35:33.647Z,27.30
2018-06-11T17:38:02.366Z,27.10
2018-06-11T17:40:31.051Z,26.98
2018-06-11T17:42:59.795Z,26.86
2018-06-11T17:45:28.528Z,26.70
2018-06-11T17:47:57.433Z,26.53
2018-06-11T17:50:26.204Z,26.34
2018-06-11T17:52:54.942Z,26.21
2018-06-11T17:55:23.663Z,26.03
2018-06-11T17:57:52.414Z,25.92
2018-06-11T18:00:21.173Z,25.82
2018-06-11T18:02:49.891Z,25.74
2018-06-11T18:05:18.626Z,25.67
2018-06-11T18:07:47.386Z,25.50
2018-06-11T18:10:16.111Z,25.41
2018-06-11T18:12:44.870Z,25.33
2018-06-11T18:15:13.578Z,25.38
2018-06-11T18:17:42.831Z,25.43
2018-06-11T18:20:11.650Z,25.43
2018-06-11T18:22:40.488Z,25.52
2018-06-11T18:25:09.205Z,25.37
2018-06-11T18:27:37.967Z,25.12
2018-06-11T18:30:06.674Z,25.00
2018-06-11T18:32:35.365Z,24.89
2018-06-11T18:35:04.126Z,25.14
2018-06-11T18:37:32.845Z,25.14
2018-06-11T18:40:01.722Z,25.10
2018-06-11T18:42:30.515Z,25.06
2018-06-11T18:44:59.261Z,25.04
2018-06-11T18:47:27.979Z,24.93
2018-06-11T18:49:56.726Z,24.86
2018-06-11T18:52:25.459Z,24.76
2018-06-11T18:54:54.161Z,24.78
2018-06-11T18:57:22.893Z,25.02
2018-06-11T18:59:51.602Z,25.13
2018-06-11T19:02:20.478Z,25.20
2018-06-11T19:04:49.241Z,25.11
2018-06-11T19:07:17.962Z,24.97
2018-06-11T19:09:46.699Z,25.28
2018-06-11T19:12:15.464Z,25.37
2018-06-11T19:14:44.153Z,25.43
2018-06-11T19:17:12.862Z,25.29
2018-06-11T19:19:41.622Z,25.11
2018-06-11T19:22:10.390Z,24.89
2018-06-11T19:24:39.085Z,24.79
2018-06-11T19:27:07.851Z,24.69
2018-06-11T19:29:36.636Z,24.65
2018-06-11T19:32:05.357Z,24.61
2018-06-11T19:34:34.153Z,24.76
2018-06-11T19:37:02.900Z,24.94
2018-06-11T19:39:31.641Z,24.96
2018-06-11T19:42:00.393Z,24.91
2018-06-11T19:44:29.093Z,24.91
2018-06-11T19:46:57.841Z,24.80
2018-06-11T19:49:26.573Z,24.77
2018-06-11T19:51:55.298Z,24.53
2018-06-11T19:54:24.180Z,24.35
2018-06-11T19:56:52.987Z,24.24
2018-06-11T19:59:21.728Z,24.15
2018-06-11T20:01:50.475Z,24.00
2018-06-11T20:04:19.190Z,23.91
2018-06-11T20:06:47.889Z,23.85
2018-06-11T20:09:16.606Z,23.83
2018-06-11T20:11:45.325Z,23.78
2018-06-11T20:14:14.027Z,23.67
2018-06-11T20:16:42.756Z,23.65
2018-06-11T20:19:11.529Z,23.57
2018-06-11T20:21:40.289Z,23.63
2018-06-11T20:24:08.989Z,23.72
2018-06-11T20:26:37.781Z,23.63
2018-06-11T20:29:06.481Z,23.28
2018-06-11T20:31:35.181Z,23.38
2018-06-11T20:34:04.038Z,23.16
2018-06-11T20:36:32.876Z,23.03
2018-06-11T20:39:01.580Z,22.96
2018-06-11T20:41:30.437Z,22.81
2018-06-11T20:43:59.147Z,22.70
2018-06-11T20:46:27.853Z,22.56
2018-06-11T20:48:56.608Z,22.45
2018-06-11T20:51:25.339Z,22.41
2018-06-11T20:53:54.166Z,22.39
2018-06-11T20:56:22.947Z,22.23
2018-06-11T20:58:51.704Z,22.14
2018-06-11T21:01:20.566Z,22.06
2018-06-11T21:03:49.320Z,22.04
2018-06-11T21:06:18.059Z,21.98
2018-06-11T21:08:46.789Z,21.93
2018-06-11T21:11:15.530Z,21.89
2018-06-11T21:13:44.360Z,21.95
2018-06-11T21:16:13.120Z,22.13
2018-06-11T21:18:41.900Z,22.17
2018-06-11T21:21:10.746Z,22.41
2018-06-11T21:23:39.708Z,22.65
2018-06-11T21:26:08.495Z,22.63
2018-06-11T21:28:37.254Z,22.55
2018-06-11T21:31:05.990Z,22.54
2018-06-11T21:33:34.746Z,22.47
2018-06-11T21:36:03.498Z,22.36
2018-06-11T21:38:32.218Z,22.18
2018-06-11T21:41:00.965Z,22.05
2018-06-11T21:43:29.676Z,21.96
2018-06-11T21:45:58.373Z,22.00
2018-06-11T21:48:27.118Z,21.94
2018-06-11T21:50:55.818Z,21.94
2018-06-11T21:53:24.531Z,21.81
2018-06-11T21:55:53.294Z,21.67
2018-06-11T21:58:22.022Z,21.59
2018-06-11T22:00:50.750Z,21.54
2018-06-11T22:03:19.542Z,21.44
2018-06-11T22:05:48.249Z,21.41
2018-06-11T22:08:16.952Z,21.42
2018-06-11T22:10:45.869Z,21.38
2018-06-11T22:13:14.591Z,21.28
2018-06-11T22:15:43.344Z,21.21
2018-06-11T22:18:12.121Z,21.12
2018-06-11T22:20:41.056Z,21.13
2018-06-11T22:23:10.048Z,21.10
2018-06-11T22:25:38.885Z,21.00
2018-06-11T22:28:07.589Z,20.96
2018-06-11T22:30:36.316Z,20.86
2018-06-11T22:33:05.055Z,20.86
2018-06-11T22:35:33.765Z,20.80
2018-06-11T22:38:02.573Z,20.85
2018-06-11T22:40:31.308Z,20.82
2018-06-11T22:43:00.036Z,20.78
2018-06-11T22:45:28.742Z,20.73
2018-06-11T22:47:57.489Z,20.67
2018-06-11T22:50:26.181Z,20.56
2018-06-11T22:52:54.873Z,20.59
2018-06-11T22:55:23.601Z,20.59
2018-06-11T22:57:52.305Z,20.63
2018-06-11T23:00:25.001Z,20.62
2018-06-11T23:02:53.702Z,20.60
2018-06-11T23:05:22.410Z,20.51
2018-06-11T23:07:51.161Z,20.50
2018-06-11T23:10:19.877Z,20.51
2018-06-11T23:12:48.680Z,20.48
2018-06-11T23:15:17.492Z,20.41
2018-06-11T23:17:46.247Z,20.40
2018-06-11T23:20:15.178Z,20.34
2018-06-11T23:22:43.950Z,20.34
2018-06-11T23:25:12.662Z,20.32
2018-06-11T23:27:41.368Z,20.23
2018-06-11T23:30:10.110Z,20.29
2018-06-11T23:32:38.941Z,20.39
2018-06-11T23:35:07.656Z,20.48
2018-06-11T23:37:36.390Z,20.66
2018-06-11T23:40:05.113Z,20.80
2018-06-11T23:42:33.822Z,20.80
2018-06-11T23:45:02.550Z,20.82
2018-06-11T23:47:31.257Z,20.67
2018-06-11T23:49:59.955Z,20.60
2018-06-11T23:52:28.673Z,20.50
2018-06-11T23:54:57.377Z,20.45
2018-06-11T23:57:26.091Z,20.38
2018-06-11T23:59:54.834Z,20.32
